Time;durP1;ratioP1;P1;durP2;ratioP2;P2;SDS_P1;SDS_P2;PMS_P1;PMS_P2;Temp;Humidity;BMP_temperature;BMP_pressure;BME280_temperature;BME280_humidity;BME280_pressure;Samples;Min_cycle;Max_cycle;Signal;HPM_P1;HPM_P2
2022/11/01 00:01:51;;;;;;;13.70;6.80;;;;;;;;;;4965903;28;20057;-66
2022/11/01 00:04:17;;;;;;;14.32;7.78;;;;;;;;;;4965328;28;20051;-66
2022/11/01 00:06:43;;;;;;;13.02;6.20;;;;;;;;;;4965607;28;20508;-63
2022/11/01 00:09:08;;;;;;;10.77;6.65;;;;;;;;;;4965554;28;20035;-63
2022/11/01 00:11:34;;;;;;;12.38;7.00;;;;;;;;;;4968997;28;20435;-62
2022/11/01 00:14:00;;;;;;;17.80;6.97;;;;;;;;;;4964124;28;20055;-62
2022/11/01 00:16:25;;;;;;;12.13;6.82;;;;;;;;;;4967272;28;20039;-62
2022/11/01 00:18:50;;;;;;;11.73;6.38;;;;;;;;;;4970676;28;20054;-62
2022/11/01 00:21:17;;;;;;;13.02;7.07;;;;;;;;;;4969119;28;20493;-61
2022/11/01 00:23:43;;;;;;;11.95;7.15;;;;;;;;;;4961863;28;20050;-61
2022/11/01 00:26:14;;;;;;;12.25;6.10;;;;;;;;;;4967146;28;20039;-63
2022/11/01 00:28:39;;;;;;;12.27;6.70;;;;;;;;;;4965635;28;22528;-65
2022/11/01 00:31:05;;;;;;;13.10;6.47;;;;;;;;;;4966512;28;20078;-64
2022/11/01 00:33:31;;;;;;;17.05;6.90;;;;;;;;;;4964226;28;20512;-65
2022/11/01 00:36:00;;;;;;;15.88;6.72;;;;;;;;;;4967074;28;20506;-62
2022/11/01 00:38:26;;;;;;;15.27;6.53;;;;;;;;;;4966645;28;20051;-64
2022/11/01 00:40:51;;;;;;;14.35;6.20;;;;;;;;;;4963060;28;20057;-64
2022/11/01 00:43:16;;;;;;;12.75;7.10;;;;;;;;;;4967130;28;20049;-61
2022/11/01 00:45:43;;;;;;;14.90;6.63;;;;;;;;;;4964887;28;20091;-63
2022/11/01 00:48:09;;;;;;;16.25;6.35;;;;;;;;;;4962718;28;20466;-62
2022/11/01 00:50:34;;;;;;;13.20;6.53;;;;;;;;;;4966794;28;20057;-64
2022/11/01 00:52:59;;;;;;;20.05;8.35;;;;;;;;;;4964722;28;20495;-63
2022/11/01 00:55:25;;;;;;;19.00;8.93;;;;;;;;;;4970811;28;20051;-65
2022/11/01 00:57:50;;;;;;;13.52;8.00;;;;;;;;;;4959992;28;20540;-59
2022/11/01 01:00:16;;;;;;;20.38;8.75;;;;;;;;;;4954103;28;20058;-60
2022/11/01 01:02:41;;;;;;;16.88;9.07;;;;;;;;;;4952557;28;20051;-59
2022/11/01 01:05:07;;;;;;;16.02;9.32;;;;;;;;;;4949346;28;20078;-59
2022/11/01 01:07:33;;;;;;;19.38;9.18;;;;;;;;;;4952118;28;20418;-67
2022/11/01 01:09:58;;;;;;;19.63;9.60;;;;;;;;;;4955032;28;20051;-66
2022/11/01 01:12:24;;;;;;;15.70;8.23;;;;;;;;;;4950823;28;20102;-68
2022/11/01 01:14:49;;;;;;;17.80;8.82;;;;;;;;;;4957916;28;20073;-68
2022/11/01 01:17:15;;;;;;;17.17;8.65;;;;;;;;;;4957397;28;20098;-67
2022/11/01 01:19:40;;;;;;;15.20;8.48;;;;;;;;;;4956038;28;20047;-66
2022/11/01 01:22:06;;;;;;;17.75;9.10;;;;;;;;;;4954297;28;20047;-66
2022/11/01 01:24:32;;;;;;;15.55;8.60;;;;;;;;;;4957431;28;20039;-69
2022/11/01 01:26:58;;;;;;;23.23;9.15;;;;;;;;;;4952564;28;20470;-61
2022/11/01 01:29:24;;;;;;;18.73;8.93;;;;;;;;;;4956534;28;20055;-60
2022/11/01 01:31:50;;;;;;;17.90;9.13;;;;;;;;;;4952291;28;20057;-59
2022/11/01 01:34:16;;;;;;;21.73;9.07;;;;;;;;;;4951288;28;20689;-59
2022/11/01 01:36:42;;;;;;;17.48;9.35;;;;;;;;;;4952543;28;20035;-63
2022/11/01 01:39:08;;;;;;;14.90;8.57;;;;;;;;;;4956181;28;20049;-62
2022/11/01 01:44:46;;;;;;;17.52;8.88;;;;;;;;;;4954604;28;20062;-64
2022/11/01 01:47:16;;;;;;;17.83;8.95;;;;;;;;;;4952375;28;20130;-64
2022/11/01 01:49:42;;;;;;;19.00;7.60;;;;;;;;;;4952248;28;20050;-63
2022/11/01 01:52:08;;;;;;;13.52;8.63;;;;;;;;;;4958079;28;20047;-64
2022/11/01 01:54:34;;;;;;;15.70;8.88;;;;;;;;;;4951229;28;20118;-63
2022/11/01 01:56:59;;;;;;;21.67;10.52;;;;;;;;;;4952874;28;20047;-63
2022/11/01 01:59:25;;;;;;;20.00;9.30;;;;;;;;;;4953185;28;20035;-64
2022/11/01 02:01:51;;;;;;;17.92;9.32;;;;;;;;;;4955128;28;20388;-63
2022/11/01 02:04:32;;;;;;;15.55;8.85;;;;;;;;;;4981409;23;20107;-63
2022/11/01 02:06:59;;;;;;;20.75;10.20;;;;;;;;;;4991212;28;20468;-64
2022/11/01 02:09:25;;;;;;;18.90;9.82;;;;;;;;;;4992149;28;20029;-63
2022/11/01 02:11:50;;;;;;;18.90;10.50;;;;;;;;;;4995013;28;20100;-61
2022/11/01 02:14:17;;;;;;;21.85;10.25;;;;;;;;;;4991655;28;20058;-64
2022/11/01 02:16:52;;;;;;;17.02;10.48;;;;;;;;;;4995970;28;20078;-63
2022/11/01 02:19:53;;;;;;;18.23;9.10;;;;;;;;;;4995642;28;20045;-62
2022/11/01 02:22:40;;;;;;;14.85;8.68;;;;;;;;;;4995144;28;20124;-63
2022/11/01 02:25:24;;;;;;;17.08;9.23;;;;;;;;;;4996233;28;20046;-62
2022/11/01 02:28:12;;;;;;;18.65;8.82;;;;;;;;;;4994763;28;20176;-56
2022/11/01 02:31:16;;;;;;;21.80;9.10;;;;;;;;;;4997500;28;20042;-63
2022/11/01 02:33:50;;;;;;;15.82;9.02;;;;;;;;;;4993699;28;20112;-63
2022/11/01 02:36:23;;;;;;;16.42;9.45;;;;;;;;;;4992673;28;20072;-63
2022/11/01 02:38:54;;;;;;;18.27;8.88;;;;;;;;;;4994796;28;20046;-63
2022/11/01 02:41:33;;;;;;;15.35;8.40;;;;;;;;;;4990887;28;20042;-62
2022/11/01 02:44:11;;;;;;;19.70;8.95;;;;;;;;;;4974126;28;20104;-63
2022/11/01 02:49:26;;;;;;;17.00;7.95;;;;;;;;;;4986180;28;20099;-63
2022/11/01 02:51:54;;;;;;;15.93;8.43;;;;;;;;;;4989543;28;20834;-63
2022/11/01 02:54:27;;;;;;;18.45;8.57;;;;;;;;;;4994084;28;20127;-63
2022/11/01 02:56:54;;;;;;;15.48;8.43;;;;;;;;;;4991985;28;20058;-64
2022/11/01 02:59:24;;;;;;;14.60;8.07;;;;;;;;;;4992670;28;20048;-63
2022/11/01 03:02:15;;;;;;;13.25;7.65;;;;;;;;;;4989996;28;20054;-63
2022/11/01 03:04:41;;;;;;;17.70;8.80;;;;;;;;;;4990980;28;20061;-63
2022/11/01 03:07:12;;;;;;;15.80;8.40;;;;;;;;;;4992329;28;20042;-66
2022/11/01 03:09:39;;;;;;;16.45;8.73;;;;;;;;;;4994682;28;20481;-65
2022/11/01 03:12:18;;;;;;;23.15;8.80;;;;;;;;;;4993095;28;20103;-65
2022/11/01 03:14:55;;;;;;;17.00;8.75;;;;;;;;;;4993497;28;20835;-65
2022/11/01 03:17:46;;;;;;;11.80;7.68;;;;;;;;;;4994511;28;20049;-65
2022/11/01 03:20:28;;;;;;;17.13;9.00;;;;;;;;;;4995519;28;20107;-66
2022/11/01 03:22:57;;;;;;;16.65;8.15;;;;;;;;;;4989394;28;20077;-66
2022/11/01 03:25:43;;;;;;;18.83;8.55;;;;;;;;;;4972431;28;20445;-67
2022/11/01 03:28:14;;;;;;;16.23;7.95;;;;;;;;;;4987843;28;20050;-66
2022/11/01 03:30:44;;;;;;;22.15;9.15;;;;;;;;;;4987990;28;20060;-68
2022/11/01 03:33:12;;;;;;;15.65;8.63;;;;;;;;;;4993864;28;20037;-68
2022/11/01 03:35:41;;;;;;;18.77;9.52;;;;;;;;;;4995089;28;20468;-64
2022/11/01 03:38:12;;;;;;;20.08;9.13;;;;;;;;;;4989921;28;22771;-65
2022/11/01 03:40:43;;;;;;;16.48;9.63;;;;;;;;;;4994801;28;20073;-64
2022/11/01 03:43:12;;;;;;;17.80;10.38;;;;;;;;;;4992084;28;20046;-65
2022/11/01 03:45:39;;;;;;;22.10;10.35;;;;;;;;;;4992595;28;20404;-66
2022/11/01 03:48:05;;;;;;;20.75;9.88;;;;;;;;;;4994605;28;20088;-66
2022/11/01 03:50:31;;;;;;;17.98;10.00;;;;;;;;;;4997331;28;20572;-67
2022/11/01 03:52:57;;;;;;;19.83;10.20;;;;;;;;;;4995860;28;20053;-65
2022/11/01 03:55:23;;;;;;;19.40;10.02;;;;;;;;;;4991520;28;21529;-66
2022/11/01 03:57:49;;;;;;;19.23;10.80;;;;;;;;;;4988462;28;20042;-66
2022/11/01 04:00:20;;;;;;;19.38;11.68;;;;;;;;;;4993949;28;20025;-66
2022/11/01 04:02:49;;;;;;;20.23;10.43;;;;;;;;;;4997469;28;20449;-65
2022/11/01 04:05:16;;;;;;;16.67;9.45;;;;;;;;;;5000311;28;20077;-65
2022/11/01 04:07:42;;;;;;;20.77;10.10;;;;;;;;;;4993279;28;20050;-67
2022/11/01 04:10:08;;;;;;;23.90;11.93;;;;;;;;;;4996210;28;20049;-65
2022/11/01 04:12:33;;;;;;;18.40;11.10;;;;;;;;;;4990278;28;20030;-65
2022/11/01 04:20:32;;;;;;;22.40;11.65;;;;;;;;;;4999425;28;20136;-65
2022/11/01 04:23:03;;;;;;;20.65;11.95;;;;;;;;;;4993736;28;20164;-66
2022/11/01 04:25:29;;;;;;;23.48;11.30;;;;;;;;;;4994139;28;20460;-68
2022/11/01 04:27:55;;;;;;;19.92;11.20;;;;;;;;;;4994230;28;20061;-66
2022/11/01 04:30:22;;;;;;;18.75;11.27;;;;;;;;;;4993684;28;20129;-65
2022/11/01 04:32:48;;;;;;;18.95;11.05;;;;;;;;;;4993925;28;20133;-65
2022/11/01 04:35:13;;;;;;;20.98;10.82;;;;;;;;;;4996066;28;20130;-65
2022/11/01 04:37:39;;;;;;;18.85;11.02;;;;;;;;;;4991487;28;20503;-66
2022/11/01 04:40:08;;;;;;;21.17;11.13;;;;;;;;;;4992388;28;20058;-65
2022/11/01 04:42:35;;;;;;;17.23;11.07;;;;;;;;;;4993862;28;20081;-65
2022/11/01 04:45:01;;;;;;;16.05;10.20;;;;;;;;;;4995883;28;20117;-65
2022/11/01 04:47:26;;;;;;;20.48;11.05;;;;;;;;;;4998755;28;20050;-65
2022/11/01 04:49:51;;;;;;;24.05;11.30;;;;;;;;;;4991331;28;20108;-65
2022/11/01 04:52:17;;;;;;;20.50;12.00;;;;;;;;;;4993248;28;20077;-64
2022/11/01 04:54:43;;;;;;;19.42;10.73;;;;;;;;;;4998828;28;20049;-66
2022/11/01 04:57:21;;;;;;;25.02;13.05;;;;;;;;;;4998311;28;20034;-66
2022/11/01 04:59:56;;;;;;;27.17;12.32;;;;;;;;;;4991104;28;20058;-65
2022/11/01 05:02:23;;;;;;;19.42;11.50;;;;;;;;;;4995413;28;20046;-66
2022/11/01 05:04:49;;;;;;;21.45;12.32;;;;;;;;;;4993397;28;20400;-65
2022/11/01 05:07:15;;;;;;;17.60;11.00;;;;;;;;;;4992189;28;20053;-67
2022/11/01 05:09:41;;;;;;;16.98;11.27;;;;;;;;;;4993564;28;20037;-67
2022/11/01 05:12:07;;;;;;;17.35;11.18;;;;;;;;;;4993838;28;20424;-67
2022/11/01 05:14:33;;;;;;;19.38;11.38;;;;;;;;;;4996312;28;20077;-66
2022/11/01 05:16:58;;;;;;;19.42;11.60;;;;;;;;;;4995463;28;20226;-68
2022/11/01 05:19:24;;;;;;;20.70;11.40;;;;;;;;;;4992236;28;20049;-67
2022/11/01 05:21:50;;;;;;;19.98;11.82;;;;;;;;;;4993672;28;20070;-67
2022/11/01 05:24:15;;;;;;;22.13;11.95;;;;;;;;;;4996647;28;20506;-67
2022/11/01 05:26:41;;;;;;;16.88;11.05;;;;;;;;;;4988657;28;20051;-67
2022/11/01 05:29:07;;;;;;;21.17;11.82;;;;;;;;;;4993549;28;20050;-67
2022/11/01 05:31:32;;;;;;;19.83;11.43;;;;;;;;;;4987987;28;20126;-67
2022/11/01 05:33:57;;;;;;;20.35;10.90;;;;;;;;;;4995033;28;20108;-66
2022/11/01 05:36:23;;;;;;;20.17;11.52;;;;;;;;;;4991385;28;20508;-67
2022/11/01 05:38:48;;;;;;;18.88;10.48;;;;;;;;;;4994777;28;20030;-67
2022/11/01 05:41:14;;;;;;;23.23;11.05;;;;;;;;;;4995563;28;20120;-67
2022/11/01 05:43:39;;;;;;;18.33;11.30;;;;;;;;;;4991929;28;20057;-67
2022/11/01 05:46:06;;;;;;;21.95;11.20;;;;;;;;;;4996018;28;20046;-67
2022/11/01 05:48:31;;;;;;;19.70;10.77;;;;;;;;;;4996151;28;20520;-66
2022/11/01 05:50:57;;;;;;;19.58;10.82;;;;;;;;;;4995167;28;20029;-66
2022/11/01 05:53:22;;;;;;;19.65;10.55;;;;;;;;;;4994141;28;20077;-66
2022/11/01 05:55:48;;;;;;;24.17;11.80;;;;;;;;;;4990139;28;20100;-66
2022/11/01 05:58:14;;;;;;;18.48;11.23;;;;;;;;;;4990009;28;20165;-66
2022/11/01 06:00:39;;;;;;;17.25;10.75;;;;;;;;;;4990693;28;20654;-66
2022/11/01 06:03:05;;;;;;;18.85;11.02;;;;;;;;;;4989777;28;21967;-59
2022/11/01 06:05:31;;;;;;;17.65;11.20;;;;;;;;;;4997677;28;20065;-60
2022/11/01 06:07:59;;;;;;;25.30;11.82;;;;;;;;;;4992278;28;20038;-59
2022/11/01 06:10:24;;;;;;;19.20;11.05;;;;;;;;;;4994734;28;20398;-60
2022/11/01 06:12:50;;;;;;;19.58;11.00;;;;;;;;;;4990297;28;20053;-61
2022/11/01 06:15:16;;;;;;;23.38;10.77;;;;;;;;;;4994835;28;20042;-61
2022/11/01 06:17:41;;;;;;;22.02;11.27;;;;;;;;;;4998141;28;20064;-61
2022/11/01 06:20:07;;;;;;;18.45;11.10;;;;;;;;;;4988089;28;20159;-61
2022/11/01 06:22:37;;;;;;;16.00;10.73;;;;;;;;;;4990584;28;20516;-61
2022/11/01 06:25:03;;;;;;;17.45;11.43;;;;;;;;;;4995469;28;20050;-61
2022/11/01 06:27:29;;;;;;;18.55;11.50;;;;;;;;;;4993346;28;20048;-60
2022/11/01 06:29:54;;;;;;;20.42;12.27;;;;;;;;;;4994697;28;20041;-61
2022/11/01 06:32:19;;;;;;;22.15;11.52;;;;;;;;;;4994962;28;20058;-61
2022/11/01 06:34:45;;;;;;;18.92;12.10;;;;;;;;;;4985850;28;20180;-62
2022/11/01 06:37:10;;;;;;;19.90;11.75;;;;;;;;;;4989181;28;20061;-60
2022/11/01 06:39:36;;;;;;;21.73;12.13;;;;;;;;;;4992928;28;20145;-61
2022/11/01 06:42:01;;;;;;;16.85;11.05;;;;;;;;;;4991906;28;20037;-60
2022/11/01 06:44:26;;;;;;;22.67;11.80;;;;;;;;;;4989483;28;20523;-60
2022/11/01 06:46:53;;;;;;;19.80;11.52;;;;;;;;;;4993373;28;20180;-60
2022/11/01 06:49:19;;;;;;;23.00;13.80;;;;;;;;;;4997631;28;20149;-60
2022/11/01 06:51:45;;;;;;;20.42;13.23;;;;;;;;;;4994001;28;20489;-61
2022/11/01 06:54:10;;;;;;;28.27;14.10;;;;;;;;;;4996892;28;20057;-61
2022/11/01 06:56:36;;;;;;;18.42;11.77;;;;;;;;;;4989946;28;20073;-61
2022/11/01 06:59:02;;;;;;;22.80;11.82;;;;;;;;;;4992739;28;20049;-61
2022/11/01 07:01:28;;;;;;;16.80;11.95;;;;;;;;;;4990706;28;20057;-60
2022/11/01 07:03:53;;;;;;;16.50;11.50;;;;;;;;;;4987422;28;20077;-60
2022/11/01 07:06:19;;;;;;;17.17;11.20;;;;;;;;;;4991642;28;20030;-61
2022/11/01 07:08:44;;;;;;;20.58;11.05;;;;;;;;;;4994376;28;20519;-61
2022/11/01 07:11:10;;;;;;;16.00;10.25;;;;;;;;;;4997123;28;20120;-61
2022/11/01 07:13:37;;;;;;;21.45;10.82;;;;;;;;;;4996411;28;20046;-61
2022/11/01 07:16:04;;;;;;;18.98;11.07;;;;;;;;;;4997950;28;20465;-61
2022/11/01 07:18:31;;;;;;;16.65;10.05;;;;;;;;;;4995662;28;20404;-61
2022/11/01 07:20:56;;;;;;;19.65;11.02;;;;;;;;;;5003190;28;20120;-61
2022/11/01 07:23:22;;;;;;;19.40;11.07;;;;;;;;;;4996463;28;20103;-61
2022/11/01 07:25:51;;;;;;;22.98;12.32;;;;;;;;;;4995184;28;20531;-61
2022/11/01 07:28:17;;;;;;;22.30;11.20;;;;;;;;;;4997975;28;20042;-62
2022/11/01 07:30:46;;;;;;;21.85;10.98;;;;;;;;;;4997911;28;20069;-61
2022/11/01 07:33:12;;;;;;;17.27;10.38;;;;;;;;;;4995936;28;20153;-61
2022/11/01 07:35:37;;;;;;;21.50;11.20;;;;;;;;;;4994244;28;20046;-61
2022/11/01 07:38:03;;;;;;;21.88;10.75;;;;;;;;;;4999262;28;20066;-61
2022/11/01 07:40:29;;;;;;;21.25;10.75;;;;;;;;;;5001687;28;20497;-62
2022/11/01 07:42:57;;;;;;;19.83;11.05;;;;;;;;;;5002139;28;20148;-60
2022/11/01 07:45:23;;;;;;;25.80;12.43;;;;;;;;;;5001730;28;20037;-62
2022/11/01 07:47:49;;;;;;;24.05;11.57;;;;;;;;;;5002505;28;20087;-62
2022/11/01 07:50:14;;;;;;;30.30;12.77;;;;;;;;;;4996297;28;20447;-61
2022/11/01 07:52:39;;;;;;;30.92;13.50;;;;;;;;;;4999985;28;20061;-62
2022/11/01 07:55:06;;;;;;;34.22;12.90;;;;;;;;;;5001445;28;20077;-62
2022/11/01 07:57:37;;;;;;;27.85;11.95;;;;;;;;;;4999304;28;20056;-62
2022/11/01 08:00:03;;;;;;;36.10;15.13;;;;;;;;;;4996523;28;20056;-62
2022/11/01 08:02:28;;;;;;;30.42;14.18;;;;;;;;;;4999191;28;20046;-62
2022/11/01 08:04:53;;;;;;;23.90;11.95;;;;;;;;;;5002155;28;20116;-66
2022/11/01 08:07:19;;;;;;;25.35;13.38;;;;;;;;;;4998933;28;20042;-63
2022/11/01 08:09:44;;;;;;;28.38;14.13;;;;;;;;;;5002678;28;20086;-63
2022/11/01 08:12:10;;;;;;;19.25;11.90;;;;;;;;;;5002365;28;20544;-62
2022/11/01 08:14:35;;;;;;;24.27;12.88;;;;;;;;;;5000200;28;20084;-63
2022/11/01 08:17:00;;;;;;;26.83;12.18;;;;;;;;;;5002841;28;20073;-63
2022/11/01 08:19:26;;;;;;;19.88;11.15;;;;;;;;;;4994324;28;20070;-61
2022/11/01 08:21:51;;;;;;;26.08;13.15;;;;;;;;;;4997949;28;20085;-61
2022/11/01 08:24:17;;;;;;;20.48;12.10;;;;;;;;;;4981934;28;20593;-59
2022/11/01 08:26:43;;;;;;;24.33;11.77;;;;;;;;;;4993468;28;20146;-62
2022/11/01 08:29:08;;;;;;;24.45;11.43;;;;;;;;;;4986265;28;20049;-62
2022/11/01 08:31:39;;;;;;;23.92;12.02;;;;;;;;;;4987479;28;20049;-62
2022/11/01 08:34:04;;;;;;;21.73;11.38;;;;;;;;;;4987855;28;20045;-62
2022/11/01 08:36:30;;;;;;;24.40;11.93;;;;;;;;;;4996164;28;20030;-62
2022/11/01 08:38:56;;;;;;;22.48;11.98;;;;;;;;;;4997151;28;20883;-61
2022/11/01 08:41:22;;;;;;;22.45;11.65;;;;;;;;;;4994165;28;20464;-62
2022/11/01 08:43:48;;;;;;;25.27;11.68;;;;;;;;;;4993262;28;20046;-62
2022/11/01 08:46:13;;;;;;;29.38;11.68;;;;;;;;;;4997627;28;20520;-69
2022/11/01 08:48:39;;;;;;;22.83;11.20;;;;;;;;;;4997784;28;20129;-70
2022/11/01 08:51:04;;;;;;;21.02;11.80;;;;;;;;;;4990089;28;20048;-61
2022/11/01 08:53:30;;;;;;;26.00;12.85;;;;;;;;;;4987605;28;20054;-61
2022/11/01 08:55:56;;;;;;;22.40;12.35;;;;;;;;;;4994544;28;20043;-60
2022/11/01 08:58:21;;;;;;;24.50;12.38;;;;;;;;;;4992803;28;20053;-60
2022/11/01 09:00:47;;;;;;;30.65;11.68;;;;;;;;;;5002571;28;20045;-61
2022/11/01 09:03:13;;;;;;;30.35;13.18;;;;;;;;;;4992621;28;20038;-61
2022/11/01 09:05:39;;;;;;;21.98;12.30;;;;;;;;;;4990286;28;20053;-60
2022/11/01 09:08:05;;;;;;;23.33;12.25;;;;;;;;;;4996222;28;20135;-60
2022/11/01 09:10:31;;;;;;;21.70;11.93;;;;;;;;;;4990868;28;20052;-60
2022/11/01 09:12:57;;;;;;;18.08;11.38;;;;;;;;;;4989195;28;20046;-60
2022/11/01 09:15:23;;;;;;;20.83;11.68;;;;;;;;;;4984989;28;20896;-59
2022/11/01 09:17:48;;;;;;;20.63;10.93;;;;;;;;;;4986804;28;20091;-63
2022/11/01 09:20:14;;;;;;;20.85;11.30;;;;;;;;;;4984151;28;20446;-60
2022/11/01 09:22:40;;;;;;;22.85;11.75;;;;;;;;;;4988548;28;20093;-61
2022/11/01 09:25:06;;;;;;;18.05;11.32;;;;;;;;;;4987719;28;20064;-63
2022/11/01 09:27:31;;;;;;;19.20;10.98;;;;;;;;;;4986335;28;20207;-62
2022/11/01 09:29:57;;;;;;;17.10;10.23;;;;;;;;;;4992620;28;20041;-62
2022/11/01 09:32:22;;;;;;;19.02;10.07;;;;;;;;;;4986421;28;20082;-62
2022/11/01 09:34:48;;;;;;;16.42;9.02;;;;;;;;;;4985526;28;20169;-62
2022/11/01 09:37:15;;;;;;;10.48;6.57;;;;;;;;;;4983543;28;20449;-62
2022/11/01 09:39:40;;;;;;;13.32;5.15;;;;;;;;;;4984790;28;20042;-62
2022/11/01 09:42:15;;;;;;;6.63;3.42;;;;;;;;;;4987592;28;20096;-60
2022/11/01 09:44:45;;;;;;;9.93;3.90;;;;;;;;;;4987454;28;20398;-60
2022/11/01 09:47:29;;;;;;;11.05;3.20;;;;;;;;;;4981288;28;20159;-61
2022/11/01 09:50:21;;;;;;;8.48;2.75;;;;;;;;;;4986397;28;20084;-60
2022/11/01 09:52:51;;;;;;;5.03;2.63;;;;;;;;;;4992954;28;20053;-60
2022/11/01 09:55:25;;;;;;;7.25;2.08;;;;;;;;;;4990008;28;20420;-60
2022/11/01 09:58:07;;;;;;;3.45;2.13;;;;;;;;;;4988893;28;20052;-61
2022/11/01 10:00:38;;;;;;;6.53;2.00;;;;;;;;;;4989466;28;20451;-60
2022/11/01 10:03:23;;;;;;;3.20;1.10;;;;;;;;;;4986890;28;20037;-61
2022/11/01 10:06:14;;;;;;;10.57;0.80;;;;;;;;;;4985971;28;20899;-62
2022/11/01 10:08:46;;;;;;;5.22;1.02;;;;;;;;;;4985230;28;20060;-62
2022/11/01 10:11:39;;;;;;;1.98;0.80;;;;;;;;;;4986581;28;20137;-62
2022/11/01 10:14:10;;;;;;;2.95;0.63;;;;;;;;;;4994300;28;20103;-60
2022/11/01 10:16:40;;;;;;;4.05;0.90;;;;;;;;;;4989198;28;20057;-67
2022/11/01 10:19:16;;;;;;;4.00;0.80;;;;;;;;;;4990756;28;20116;-67
2022/11/01 10:21:54;;;;;;;1.98;0.68;;;;;;;;;;4993218;28;20069;-67
2022/11/01 10:24:55;;;;;;;2.25;0.80;;;;;;;;;;4988469;28;20926;-68
2022/11/01 10:27:44;;;;;;;2.97;0.50;;;;;;;;;;4987921;28;20049;-67
2022/11/01 10:30:15;;;;;;;5.10;0.68;;;;;;;;;;4986478;28;22011;-66
2022/11/01 10:33:05;;;;;;;2.22;0.68;;;;;;;;;;4989957;28;20455;-67
2022/11/01 10:35:35;;;;;;;2.05;0.80;;;;;;;;;;4987502;28;20067;-67
2022/11/01 10:38:18;;;;;;;3.67;0.60;;;;;;;;;;4992468;28;20050;-67
2022/11/01 10:40:54;;;;;;;2.28;0.50;;;;;;;;;;4993223;28;20077;-66
2022/11/01 10:43:21;;;;;;;1.85;0.50;;;;;;;;;;4987434;28;20526;-66
2022/11/01 10:45:50;;;;;;;2.25;0.70;;;;;;;;;;4986515;28;20121;-66
2022/11/01 10:48:44;;;;;;;2.72;0.60;;;;;;;;;;4988703;28;20132;-66
2022/11/01 10:51:14;;;;;;;2.20;0.47;;;;;;;;;;4987720;28;20424;-66
2022/11/01 10:53:47;;;;;;;2.47;0.40;;;;;;;;;;4984902;28;20511;-66
2022/11/01 10:56:26;;;;;;;3.03;0.70;;;;;;;;;;4997340;28;20066;-66
2022/11/01 10:59:15;;;;;;;3.97;0.57;;;;;;;;;;4989567;28;20113;-66
2022/11/01 11:01:42;;;;;;;1.98;0.40;;;;;;;;;;4984375;28;20065;-66
2022/11/01 11:04:14;;;;;;;2.35;0.50;;;;;;;;;;4980856;28;20132;-66
2022/11/01 11:06:41;;;;;;;4.60;0.50;;;;;;;;;;4988326;28;20122;-65
2022/11/01 11:09:17;;;;;;;2.50;0.40;;;;;;;;;;4987206;28;20065;-67
2022/11/01 11:11:45;;;;;;;5.97;0.55;;;;;;;;;;4989478;28;20062;-65
2022/11/01 11:14:12;;;;;;;4.68;0.68;;;;;;;;;;4990694;28;20057;-67
2022/11/01 11:16:55;;;;;;;2.60;0.63;;;;;;;;;;4985989;28;20413;-60
2022/11/01 11:19:37;;;;;;;5.28;0.70;;;;;;;;;;4987961;28;20129;-63
2022/11/01 11:22:06;;;;;;;1.23;0.50;;;;;;;;;;4991121;28;20637;-60
2022/11/01 11:24:37;;;;;;;1.27;0.60;;;;;;;;;;4985088;28;20042;-62
2022/11/01 11:27:11;;;;;;;1.13;0.70;;;;;;;;;;4988787;28;20044;-61
2022/11/01 11:29:49;;;;;;;3.45;0.80;;;;;;;;;;4985691;28;20100;-61
2022/11/01 11:32:18;;;;;;;2.33;0.70;;;;;;;;;;4987095;28;20050;-61
2022/11/01 11:34:55;;;;;;;2.53;0.60;;;;;;;;;;4987913;28;20061;-61
2022/11/01 11:37:28;;;;;;;5.03;0.80;;;;;;;;;;4987408;28;20046;-61
2022/11/01 11:40:11;;;;;;;1.83;0.57;;;;;;;;;;4988640;28;20081;-60
2022/11/01 11:42:36;;;;;;;3.22;0.93;;;;;;;;;;4987688;28;20968;-60
2022/11/01 11:45:26;;;;;;;1.60;0.47;;;;;;;;;;4984621;28;20369;-64
2022/11/01 11:47:52;;;;;;;3.78;0.80;;;;;;;;;;4985791;28;20168;-61
2022/11/01 11:50:31;;;;;;;1.95;0.65;;;;;;;;;;4988707;28;20057;-61
2022/11/01 11:53:05;;;;;;;3.17;0.73;;;;;;;;;;4993024;28;20085;-61
2022/11/01 11:56:02;;;;;;;5.88;0.80;;;;;;;;;;4989788;28;20531;-61
2022/11/01 11:58:51;;;;;;;1.98;0.60;;;;;;;;;;4992182;28;20481;-61
2022/11/01 12:01:22;;;;;;;1.65;0.60;;;;;;;;;;4991538;28;20045;-61
2022/11/01 12:03:52;;;;;;;4.38;0.57;;;;;;;;;;4995901;28;20540;-61
2022/11/01 12:06:20;;;;;;;3.17;0.93;;;;;;;;;;4995308;28;20045;-64
2022/11/01 12:08:54;;;;;;;3.97;0.60;;;;;;;;;;4996460;28;20140;-62
2022/11/01 12:11:21;;;;;;;4.55;0.60;;;;;;;;;;4987971;28;20146;-62
2022/11/01 12:14:19;;;;;;;3.17;0.90;;;;;;;;;;4994417;28;20050;-63
2022/11/01 12:16:44;;;;;;;4.40;0.55;;;;;;;;;;4995667;28;20584;-62
2022/11/01 12:19:27;;;;;;;7.40;0.98;;;;;;;;;;5001416;28;20042;-62
2022/11/01 12:21:53;;;;;;;4.18;0.70;;;;;;;;;;4995351;28;20060;-63
2022/11/01 12:24:31;;;;;;;2.35;0.52;;;;;;;;;;4995139;28;20036;-63
2022/11/01 12:27:03;;;;;;;3.35;0.60;;;;;;;;;;4992738;28;20042;-61
2022/11/01 12:29:43;;;;;;;3.28;0.60;;;;;;;;;;5003194;28;20049;-63
2022/11/01 12:32:17;;;;;;;4.13;0.75;;;;;;;;;;4989519;28;20054;-62
2022/11/01 12:34:46;;;;;;;3.97;0.63;;;;;;;;;;5003524;28;20046;-63
2022/11/01 12:37:19;;;;;;;3.88;0.47;;;;;;;;;;4996324;28;20203;-64
2022/11/01 12:39:57;;;;;;;3.97;1.30;;;;;;;;;;4989939;28;20144;-63
2022/11/01 12:42:44;;;;;;;3.15;0.50;;;;;;;;;;4998953;28;20033;-64
2022/11/01 12:45:43;;;;;;;3.47;0.52;;;;;;;;;;4993484;28;20108;-63
2022/11/01 12:48:13;;;;;;;3.13;0.90;;;;;;;;;;5002518;28;20046;-63
2022/11/01 12:50:51;;;;;;;5.47;0.63;;;;;;;;;;4988909;28;20343;-63
2022/11/01 12:53:21;;;;;;;4.60;0.88;;;;;;;;;;5002597;28;20062;-65
2022/11/01 12:55:47;;;;;;;2.85;0.70;;;;;;;;;;4993756;28;20455;-63
2022/11/01 12:58:18;;;;;;;2.90;0.95;;;;;;;;;;5002656;28;20049;-63
2022/11/01 13:01:06;;;;;;;4.93;1.00;;;;;;;;;;4992309;28;20042;-63
2022/11/01 13:04:05;;;;;;;2.55;0.75;;;;;;;;;;4990104;28;20061;-62
2022/11/01 13:07:02;;;;;;;5.93;1.10;;;;;;;;;;4993621;28;20026;-60
2022/11/01 13:10:01;;;;;;;2.55;0.82;;;;;;;;;;4998557;28;20072;-60
2022/11/01 13:12:29;;;;;;;7.55;1.65;;;;;;;;;;4993708;28;20065;-60
2022/11/01 13:15:14;;;;;;;2.03;0.50;;;;;;;;;;4991484;28;20279;-59
2022/11/01 13:18:04;;;;;;;5.82;1.55;;;;;;;;;;4994624;28;20061;-61
2022/11/01 13:20:51;;;;;;;4.00;0.70;;;;;;;;;;4988312;28;20034;-60
2022/11/01 13:23:38;;;;;;;3.95;1.10;;;;;;;;;;4994952;28;20408;-60
2022/11/01 13:26:22;;;;;;;3.88;0.82;;;;;;;;;;4993865;28;20447;-60
2022/11/01 13:28:52;;;;;;;2.85;0.60;;;;;;;;;;5000777;28;20054;-60
2022/11/01 13:31:49;;;;;;;3.75;0.50;;;;;;;;;;4995027;28;20054;-60
2022/11/01 13:34:23;;;;;;;5.07;0.75;;;;;;;;;;4984745;28;20045;-60
2022/11/01 13:36:56;;;;;;;2.83;0.82;;;;;;;;;;4984395;28;20153;-61
2022/11/01 13:39:39;;;;;;;5.28;0.70;;;;;;;;;;4987082;28;20539;-60
2022/11/01 13:42:15;;;;;;;2.67;0.80;;;;;;;;;;4989951;28;20069;-62
2022/11/01 13:44:51;;;;;;;3.33;0.70;;;;;;;;;;4982816;28;20069;-61
2022/11/01 13:47:40;;;;;;;3.75;0.77;;;;;;;;;;4980577;28;20061;-60
2022/11/01 13:50:17;;;;;;;2.78;0.70;;;;;;;;;;4985838;28;20103;-61
2022/11/01 13:53:27;;;;;;;5.50;1.10;;;;;;;;;;4991953;28;20141;-62
2022/11/01 13:56:13;;;;;;;5.88;0.93;;;;;;;;;;4991019;28;20317;-60
2022/11/01 13:58:39;;;;;;;4.07;0.95;;;;;;;;;;4987460;28;20612;-60
2022/11/01 14:01:29;;;;;;;7.63;1.05;;;;;;;;;;4988135;28;20049;-62
2022/11/01 14:04:33;;;;;;;4.47;1.02;;;;;;;;;;4987702;28;20517;-60
2022/11/01 14:07:18;;;;;;;2.88;0.60;;;;;;;;;;4990153;28;20076;-61
2022/11/01 14:09:52;;;;;;;3.72;0.85;;;;;;;;;;4988647;28;20054;-61
2022/11/01 14:12:38;;;;;;;2.95;0.73;;;;;;;;;;4982967;28;20042;-59
2022/11/01 14:15:20;;;;;;;5.43;0.88;;;;;;;;;;4982757;28;20115;-60
2022/11/01 14:17:51;;;;;;;3.28;0.90;;;;;;;;;;4985773;28;20141;-60
2022/11/01 14:20:30;;;;;;;3.63;0.63;;;;;;;;;;4981196;28;20058;-60
2022/11/01 14:22:56;;;;;;;4.30;0.95;;;;;;;;;;4997468;28;20072;-62
2022/11/01 14:25:21;;;;;;;7.07;1.00;;;;;;;;;;5000327;28;20311;-60
2022/11/01 14:28:07;;;;;;;5.00;0.80;;;;;;;;;;4999592;28;20142;-60
2022/11/01 14:30:34;;;;;;;3.30;0.60;;;;;;;;;;5002097;28;20208;-61
2022/11/01 14:33:02;;;;;;;4.05;0.88;;;;;;;;;;5003348;28;20133;-64
2022/11/01 14:35:33;;;;;;;3.70;0.90;;;;;;;;;;5001452;28;20408;-61
2022/11/01 14:38:05;;;;;;;3.38;0.75;;;;;;;;;;5002909;28;20413;-60
2022/11/01 14:40:41;;;;;;;5.90;0.98;;;;;;;;;;4997986;28;20042;-61
2022/11/01 14:43:21;;;;;;;3.85;0.70;;;;;;;;;;4997514;28;20132;-61
2022/11/01 14:45:52;;;;;;;5.80;1.30;;;;;;;;;;4999369;28;21553;-60
2022/11/01 14:48:29;;;;;;;5.80;1.48;;;;;;;;;;5001373;28;20439;-62
2022/11/01 14:51:20;;;;;;;4.97;1.23;;;;;;;;;;5001513;28;20057;-67
2022/11/01 14:53:49;;;;;;;4.45;1.15;;;;;;;;;;5001851;28;20042;-67
2022/11/01 14:56:18;;;;;;;6.38;1.23;;;;;;;;;;4998020;28;20045;-60
2022/11/01 14:58:44;;;;;;;6.70;2.20;;;;;;;;;;4998941;28;20069;-60
2022/11/01 15:01:15;;;;;;;6.97;2.30;;;;;;;;;;5000011;28;20061;-60
2022/11/01 15:03:51;;;;;;;4.03;1.42;;;;;;;;;;5002162;28;20183;-60